Time;durP1;ratioP1;P1;durP2;ratioP2;P2;SDS_P1;SDS_P2;PMS_P1;PMS_P2;Temp;Humidity;BMP_temperature;BMP_pressure;BME280_temperature;BME280_humidity;BME280_pressure;Samples;Min_cycle;Max_cycle;Signal;HPM_P1;HPM_P2
2021/06/04 00:01:24;;;;;;;13.07;9.02;;;19.60;99.90;;;;;;5054530;28;20025;-85
2021/06/04 00:03:51;;;;;;;11.20;8.50;;;19.60;99.90;;;;;;5054746;28;20036;-84
2021/06/04 00:06:18;;;;;;;13.10;8.57;;;19.60;99.90;;;;;;5054908;28;20060;-85
2021/06/04 00:08:44;;;;;;;12.13;8.75;;;19.60;99.90;;;;;;5054419;28;20033;-84
2021/06/04 00:11:19;;;;;;;11.65;9.18;;;19.60;99.90;;;;;;5056427;28;20043;-84
2021/06/04 00:13:51;;;;;;;11.00;8.80;;;19.60;99.90;;;;;;5056398;28;20470;-84
2021/06/04 00:16:29;;;;;;;12.50;9.43;;;19.60;99.90;;;;;;5057170;28;20033;-84
2021/06/04 00:18:55;;;;;;;11.82;9.82;;;19.60;99.90;;;;;;5056937;28;20029;-83
2021/06/04 00:21:36;;;;;;;15.15;10.20;;;19.60;99.90;;;;;;5057937;28;20025;-84
2021/06/04 00:24:04;;;;;;;13.38;9.60;;;19.50;99.90;;;;;;5056662;28;20074;-84
2021/06/04 00:26:31;;;;;;;12.18;9.55;;;19.50;99.90;;;;;;5058675;28;20056;-84
2021/06/04 00:28:57;;;;;;;10.63;9.52;;;19.50;99.90;;;;;;5057754;28;20036;-86
2021/06/04 00:31:25;;;;;;;12.63;9.68;;;19.60;99.90;;;;;;5058027;28;20047;-86
2021/06/04 00:33:51;;;;;;;13.30;9.57;;;19.60;99.90;;;;;;5057092;28;20043;-85
2021/06/04 00:36:17;;;;;;;12.18;9.98;;;19.60;99.90;;;;;;5058260;28;20751;-83
2021/06/04 00:38:43;;;;;;;13.63;9.88;;;19.60;99.90;;;;;;5056455;28;20028;-83
2021/06/04 00:41:20;;;;;;;13.70;10.57;;;19.60;99.90;;;;;;5056363;28;20185;-83
2021/06/04 00:43:47;;;;;;;12.48;9.60;;;19.60;99.90;;;;;;5057069;28;20017;-84
2021/06/04 00:46:13;;;;;;;13.30;9.70;;;19.60;99.90;;;;;;5056436;28;20112;-83
2021/06/04 00:48:38;;;;;;;12.70;10.15;;;19.60;99.90;;;;;;5056122;28;20025;-84
2021/06/04 00:51:13;;;;;;;13.00;10.80;;;19.60;99.90;;;;;;5055268;28;20025;-83
2021/06/04 00:53:39;;;;;;;13.35;10.80;;;19.60;99.90;;;;;;5056855;28;20115;-83
2021/06/04 00:56:06;;;;;;;12.52;10.25;;;19.60;99.90;;;;;;5056335;28;20071;-84
2021/06/04 00:58:38;;;;;;;19.25;10.45;;;19.60;99.90;;;;;;5057474;28;20021;-83
2021/06/04 01:01:05;;;;;;;14.77;10.25;;;19.70;99.90;;;;;;5055771;28;20355;-83
2021/06/04 01:03:33;;;;;;;14.20;10.75;;;19.60;99.90;;;;;;5056268;28;20028;-83
2021/06/04 01:06:25;;;;;;;12.70;10.55;;;19.60;99.90;;;;;;5055915;28;20033;-83
2021/06/04 01:09:03;;;;;;;12.95;11.25;;;19.50;99.90;;;;;;5055658;28;20025;-84
2021/06/04 01:12:02;;;;;;;14.85;10.70;;;19.50;99.90;;;;;;5055622;28;20036;-84
2021/06/04 01:15:00;;;;;;;13.20;10.13;;;19.50;99.90;;;;;;5055680;28;20024;-85
2021/06/04 01:17:31;;;;;;;13.85;10.68;;;19.50;99.90;;;;;;5057770;28;20033;-84
2021/06/04 01:20:19;;;;;;;13.57;10.80;;;19.50;99.90;;;;;;5055267;28;20024;-84
2021/06/04 01:22:51;;;;;;;13.77;11.02;;;19.50;99.90;;;;;;5056707;28;20096;-83
2021/06/04 01:25:32;;;;;;;12.95;10.48;;;19.50;99.90;;;;;;5055435;28;20029;-83
2021/06/04 01:28:02;;;;;;;14.18;10.40;;;19.50;99.90;;;;;;5057417;28;20076;-83
2021/06/04 01:30:34;;;;;;;16.55;11.18;;;19.50;99.90;;;;;;5054445;28;20115;-84
2021/06/04 01:33:05;;;;;;;12.10;10.02;;;19.50;99.90;;;;;;5056076;28;20079;-84
2021/06/04 01:35:39;;;;;;;12.68;10.00;;;19.50;99.90;;;;;;5055047;28;20405;-84
2021/06/04 01:38:06;;;;;;;13.93;10.35;;;19.50;99.90;;;;;;5055504;28;20025;-85
2021/06/04 01:40:39;;;;;;;16.42;10.95;;;19.50;99.90;;;;;;5054733;28;20051;-83
2021/06/04 01:43:16;;;;;;;14.77;10.90;;;19.50;99.90;;;;;;5057051;28;20096;-84
2021/06/04 01:45:46;;;;;;;13.80;10.48;;;19.50;99.90;;;;;;5055647;28;20029;-84
2021/06/04 01:48:16;;;;;;;14.73;10.43;;;19.50;99.90;;;;;;5055519;28;20025;-83
2021/06/04 01:50:48;;;;;;;14.65;10.77;;;19.50;99.90;;;;;;5055897;28;20029;-84
2021/06/04 01:53:22;;;;;;;13.38;10.70;;;19.50;99.90;;;;;;5055166;28;20025;-84
2021/06/04 01:55:52;;;;;;;11.95;10.23;;;19.50;99.90;;;;;;5056994;28;20078;-83
2021/06/04 01:58:26;;;;;;;13.18;10.82;;;19.50;99.90;;;;;;5055499;28;20158;-84
2021/06/04 02:01:00;;;;;;;16.65;10.77;;;19.40;99.90;;;;;;5054611;28;20021;-84
2021/06/04 02:03:26;;;;;;;15.20;10.98;;;19.40;99.90;;;;;;5056663;28;20432;-84
2021/06/04 02:05:54;;;;;;;15.13;10.35;;;19.40;99.90;;;;;;5055081;28;20025;-83
2021/06/04 02:08:35;;;;;;;13.32;11.07;;;19.40;99.90;;;;;;5055015;28;20554;-83
2021/06/04 02:11:02;;;;;;;16.70;10.95;;;19.40;99.90;;;;;;5056474;28;20060;-85
2021/06/04 02:13:28;;;;;;;14.05;10.73;;;19.50;99.90;;;;;;5056700;28;20110;-83
2021/06/04 02:16:23;;;;;;;14.25;11.23;;;19.50;99.90;;;;;;5054871;28;20072;-83
2021/06/04 02:19:02;;;;;;;14.80;11.68;;;19.50;99.90;;;;;;5056294;28;20441;-84
2021/06/04 02:21:31;;;;;;;;;;;19.50;99.90;;;;;;5055697;28;20033;-83
2021/06/04 02:24:24;;;;;;;14.65;11.57;;;19.50;99.90;;;;;;5055587;28;19909;-84
2021/06/04 02:26:57;;;;;;;14.52;11.07;;;19.50;99.90;;;;;;5055386;28;20032;-85
2021/06/04 02:30:07;;;;;;;13.45;10.85;;;19.50;99.90;;;;;;5054728;28;20025;-84
2021/06/04 02:32:43;;;;;;;14.88;11.52;;;19.50;99.90;;;;;;4998153;28;20394;-83
2021/06/04 02:35:23;;;;;;;14.85;11.32;;;19.50;99.90;;;;;;5050269;28;20033;-83
2021/06/04 02:37:54;;;;;;;17.65;11.75;;;19.50;99.90;;;;;;5056422;28;20048;-83
2021/06/04 02:40:34;;;;;;;15.10;11.88;;;19.40;99.90;;;;;;5054771;28;20033;-85
2021/06/04 02:43:19;;;;;;;15.73;11.38;;;19.40;99.90;;;;;;5055015;28;20021;-83
2021/06/04 02:45:55;;;;;;;15.25;11.82;;;19.40;99.90;;;;;;5054940;28;20537;-84
2021/06/04 02:48:22;;;;;;;14.68;11.95;;;19.30;99.90;;;;;;5056299;28;20024;-84
2021/06/04 02:51:13;;;;;;;13.50;11.05;;;19.30;99.90;;;;;;5055420;28;20393;-85
2021/06/04 02:54:01;;;;;;;14.57;12.05;;;19.40;99.90;;;;;;5054847;28;20031;-84
2021/06/04 02:56:29;;;;;;;;;;;19.40;99.90;;;;;;5055001;28;20477;-84
2021/06/04 02:58:58;;;;;;;19.13;11.73;;;19.40;99.90;;;;;;5054093;28;20012;-83
2021/06/04 03:01:25;;;;;;;17.35;11.88;;;19.40;99.90;;;;;;5054097;28;20028;-85
2021/06/04 03:03:52;;;;;;;15.43;11.68;;;19.40;99.90;;;;;;5055079;28;20435;-85
2021/06/04 03:06:23;;;;;;;13.95;11.68;;;19.40;99.90;;;;;;5054927;28;20071;-83
2021/06/04 03:08:49;;;;;;;14.88;11.60;;;19.40;99.90;;;;;;5056265;28;20029;-86
2021/06/04 03:11:18;;;;;;;16.42;11.52;;;19.40;99.90;;;;;;5054104;28;20497;-85
2021/06/04 03:13:43;;;;;;;14.85;12.43;;;19.40;99.90;;;;;;5055154;28;20393;-83
2021/06/04 03:16:15;;;;;;;14.90;11.80;;;19.40;99.90;;;;;;5054538;28;20032;-84
2021/06/04 03:18:45;;;;;;;17.10;12.15;;;19.40;99.90;;;;;;5054693;28;20561;-84
2021/06/04 03:21:16;;;;;;;17.13;11.93;;;19.40;99.90;;;;;;5055781;28;20045;-84
2021/06/04 03:23:42;;;;;;;16.05;12.15;;;19.50;99.90;;;;;;5053968;28;20025;-83
2021/06/04 03:26:18;;;;;;;15.32;11.90;;;19.50;99.90;;;;;;5053148;28;20036;-83
2021/06/04 03:28:46;;;;;;;15.13;11.93;;;19.40;99.90;;;;;;5053587;28;20051;-84
2021/06/04 03:31:13;;;;;;;16.58;12.93;;;19.50;99.90;;;;;;5051836;28;20386;-84
2021/06/04 03:33:39;;;;;;;13.52;11.95;;;19.50;99.90;;;;;;5051889;28;20029;-83
2021/06/04 03:36:09;;;;;;;15.13;12.60;;;19.40;99.90;;;;;;5051629;28;20032;-84
2021/06/04 03:38:36;;;;;;;15.90;12.20;;;19.40;99.90;;;;;;5051727;28;20025;-85
2021/06/04 03:41:03;;;;;;;16.27;12.68;;;19.40;99.90;;;;;;5052093;28;20025;-84
2021/06/04 03:43:29;;;;;;;17.85;12.98;;;19.40;99.90;;;;;;5050976;28;20096;-83
2021/06/04 03:45:55;;;;;;;17.88;12.70;;;19.40;99.90;;;;;;5050715;28;20021;-83
2021/06/04 03:48:29;;;;;;;21.40;13.00;;;19.40;99.90;;;;;;5052692;28;20509;-84
2021/06/04 03:50:58;;;;;;;16.88;13.98;;;19.40;99.90;;;;;;5051555;28;20119;-83
2021/06/04 03:53:25;;;;;;;15.60;13.57;;;19.40;99.90;;;;;;5052899;28;20099;-84
2021/06/04 03:55:52;;;;;;;19.88;13.95;;;19.40;99.90;;;;;;5050754;28;20037;-84
2021/06/04 03:58:18;;;;;;;17.42;14.60;;;19.40;99.90;;;;;;5050693;28;20441;-83
2021/06/04 04:00:51;;;;;;;18.92;14.30;;;19.40;99.90;;;;;;5050570;28;20063;-84
2021/06/04 04:03:38;;;;;;;17.42;14.50;;;19.30;99.90;;;;;;5053058;28;20112;-84
2021/06/04 04:06:04;;;;;;;21.55;15.48;;;19.40;99.90;;;;;;5053434;28;20029;-85
2021/06/04 04:08:31;;;;;;;17.80;15.38;;;19.30;99.90;;;;;;5053118;28;20106;-85
2021/06/04 04:10:58;;;;;;;18.52;14.90;;;19.30;99.90;;;;;;5052713;28;20028;-84
2021/06/04 04:13:27;;;;;;;18.75;14.98;;;19.30;99.90;;;;;;5054619;28;20021;-85
2021/06/04 04:15:54;;;;;;;20.85;15.45;;;19.30;99.90;;;;;;5053216;28;20029;-84
2021/06/04 04:18:20;;;;;;;20.42;15.52;;;19.30;99.90;;;;;;5053349;28;20029;-83
2021/06/04 04:20:49;;;;;;;21.15;14.60;;;19.30;99.90;;;;;;5052507;28;20079;-83
2021/06/04 04:23:19;;;;;;;19.17;15.00;;;19.30;99.90;;;;;;5053767;28;20021;-83
2021/06/04 04:25:45;;;;;;;19.13;14.90;;;19.30;99.90;;;;;;5054041;28;20048;-84
2021/06/04 04:28:16;;;;;;;18.45;15.38;;;19.30;99.90;;;;;;5053442;28;20029;-83
2021/06/04 04:30:42;;;;;;;17.33;14.48;;;19.30;99.90;;;;;;5053178;28;20025;-83
2021/06/04 04:33:08;;;;;;;21.00;15.43;;;19.30;99.90;;;;;;5053802;28;20119;-83
2021/06/04 04:35:37;;;;;;;20.33;15.70;;;19.30;99.90;;;;;;5053091;28;20079;-83
2021/06/04 04:38:05;;;;;;;18.70;15.40;;;19.30;99.90;;;;;;5055473;28;20026;-83
2021/06/04 04:40:33;;;;;;;19.27;15.40;;;19.30;99.90;;;;;;5052662;28;20041;-84
2021/06/04 04:42:59;;;;;;;20.00;14.77;;;19.30;99.90;;;;;;5054026;28;20021;-84
2021/06/04 04:45:27;;;;;;;19.83;15.43;;;19.30;99.90;;;;;;5052877;28;20533;-84
2021/06/04 04:47:53;;;;;;;19.30;15.53;;;19.40;99.90;;;;;;5054857;28;20021;-84
2021/06/04 04:50:21;;;;;;;16.45;14.30;;;19.40;99.90;;;;;;5053058;28;20243;-85
2021/06/04 04:52:47;;;;;;;20.63;14.60;;;19.40;99.90;;;;;;5053119;28;20029;-85
2021/06/04 04:55:15;;;;;;;24.55;15.73;;;19.50;99.90;;;;;;5055641;28;20025;-85
2021/06/04 04:57:41;;;;;;;18.95;15.35;;;19.50;99.90;;;;;;5057165;28;20021;-84
2021/06/04 05:00:12;;;;;;;21.75;15.73;;;19.50;99.90;;;;;;5059723;28;20021;-85
2021/06/04 05:02:37;;;;;;;19.17;15.98;;;19.60;99.90;;;;;;5056848;28;20021;-83
2021/06/04 05:05:04;;;;;;;20.77;15.13;;;19.60;99.90;;;;;;5056819;28;20021;-85
2021/06/04 05:07:30;;;;;;;22.88;17.65;;;19.60;99.90;;;;;;5058283;28;20486;-84
2021/06/04 05:10:32;;;;;;;23.52;17.20;;;19.70;99.90;;;;;;5056171;28;20021;-84
2021/06/04 05:13:25;;;;;;;18.33;15.95;;;19.70;99.90;;;;;;5042146;28;20032;-84
2021/06/04 05:16:08;;;;;;;17.13;14.48;;;19.70;99.90;;;;;;5051133;28;20041;-84
2021/06/04 05:18:36;;;;;;;19.70;15.98;;;19.80;99.90;;;;;;5058732;28;20024;-85
2021/06/04 05:21:07;;;;;;;21.88;16.90;;;19.90;99.90;;;;;;5057228;28;20025;-85
2021/06/04 05:23:32;;;;;;;23.35;18.17;;;20.00;99.90;;;;;;5041330;28;20440;-84
2021/06/04 05:25:59;;;;;;;26.73;21.10;;;20.00;99.90;;;;;;5058397;28;20029;-84
2021/06/04 05:28:27;;;;;;;26.67;20.52;;;20.10;99.90;;;;;;5059936;28;20070;-83
2021/06/04 05:31:01;;;;;;;27.50;21.52;;;20.10;99.90;;;;;;5057086;28;20025;-84
2021/06/04 05:33:32;;;;;;;35.92;25.38;;;20.20;99.90;;;;;;5059866;28;20389;-84
2021/06/04 05:36:00;;;;;;;40.90;30.20;;;20.20;99.90;;;;;;5058191;28;20111;-84
2021/06/04 05:38:27;;;;;;;40.45;30.83;;;20.20;99.90;;;;;;5057222;28;20055;-84
2021/06/04 05:40:53;;;;;;;40.05;30.00;;;20.20;99.90;;;;;;5078140;22;20131;-87
2021/06/04 05:43:27;;;;;;;42.03;30.52;;;20.30;99.90;;;;;;5053180;28;20067;-87
2021/06/04 05:46:01;;;;;;;40.47;30.95;;;20.30;99.90;;;;;;5052780;28;20028;-87
2021/06/04 05:48:27;;;;;;;39.45;29.15;;;20.30;99.90;;;;;;5052804;28;20025;-87
2021/06/04 05:50:57;;;;;;;37.22;27.60;;;20.30;99.90;;;;;;5068734;28;20036;-87
2021/06/04 05:53:26;;;;;;;32.92;25.83;;;20.30;99.90;;;;;;5054356;28;20058;-88
2021/06/04 05:55:53;;;;;;;41.50;30.48;;;20.30;99.90;;;;;;5052424;28;20136;-87
2021/06/04 05:58:20;;;;;;;37.47;28.40;;;20.30;99.90;;;;;;5052598;28;20053;-87
2021/06/04 06:00:49;;;;;;;39.92;29.85;;;20.40;99.90;;;;;;5051893;28;20025;-87
2021/06/04 06:03:17;;;;;;;;;;;20.40;99.90;;;;;;5052733;28;20059;-88
2021/06/04 06:05:43;;;;;;;43.63;33.10;;;20.40;99.90;;;;;;5052374;28;19904;-87
2021/06/04 06:08:09;;;;;;;45.97;33.13;;;20.40;99.90;;;;;;5051616;28;20424;-87
2021/06/04 06:10:35;;;;;;;51.72;38.35;;;20.40;99.90;;;;;;5052908;28;20473;-87
2021/06/04 06:13:01;;;;;;;45.13;34.35;;;20.40;99.90;;;;;;5053356;28;20029;-87
2021/06/04 06:15:32;;;;;;;46.42;33.97;;;20.40;99.90;;;;;;5052244;28;20060;-87
2021/06/04 06:17:58;;;;;;;49.45;34.72;;;20.40;99.90;;;;;;5053609;28;20028;-87
2021/06/04 06:20:31;;;;;;;53.10;37.65;;;20.40;99.90;;;;;;5051728;28;20029;-87
2021/06/04 06:22:58;;;;;;;47.47;35.50;;;20.40;99.90;;;;;;5053318;28;20024;-87
2021/06/04 06:25:28;;;;;;;46.60;33.30;;;20.40;99.90;;;;;;5053175;28;20519;-87
2021/06/04 06:27:54;;;;;;;47.35;34.28;;;20.40;99.90;;;;;;5051901;28;20044;-87
2021/06/04 06:30:23;;;;;;;44.58;32.88;;;20.40;99.90;;;;;;5052592;28;20025;-87
2021/06/04 06:32:49;;;;;;;39.55;30.58;;;20.40;99.90;;;;;;5053076;28;20025;-87
2021/06/04 06:35:34;;;;;;;47.13;33.88;;;20.50;99.90;;;;;;5051586;28;20504;-86
2021/06/04 06:38:00;;;;;;;42.65;31.45;;;20.50;99.90;;;;;;5051738;28;20017;-87
2021/06/04 06:40:26;;;;;;;42.33;31.33;;;20.50;99.90;;;;;;5052161;28;20417;-87
2021/06/04 06:42:53;;;;;;;37.42;28.42;;;20.60;99.90;;;;;;5051279;28;20509;-87
2021/06/04 06:45:19;;;;;;;41.55;31.67;;;20.60;99.90;;;;;;5051656;28;20449;-87
2021/06/04 06:47:45;;;;;;;40.33;29.60;;;20.60;99.90;;;;;;5052752;28;20079;-87
2021/06/04 06:50:12;;;;;;;38.03;29.92;;;20.60;99.90;;;;;;5051193;28;20033;-87
2021/06/04 06:52:38;;;;;;;38.53;30.13;;;20.60;99.90;;;;;;5052659;28;20025;-87
2021/06/04 06:55:06;;;;;;;37.63;29.23;;;20.70;99.90;;;;;;5051506;28;20260;-87
2021/06/04 06:57:31;;;;;;;35.70;28.58;;;20.70;99.90;;;;;;5051349;28;20079;-87
2021/06/04 06:59:58;;;;;;;40.03;29.05;;;20.70;99.90;;;;;;5050661;28;20428;-87
2021/06/04 07:02:24;;;;;;;38.55;30.13;;;20.70;99.90;;;;;;5051279;28;20049;-87
2021/06/04 07:04:50;;;;;;;50.00;35.58;;;20.80;99.90;;;;;;5052509;28;20528;-87
2021/06/04 07:07:21;;;;;;;37.22;28.92;;;20.70;99.90;;;;;;5051342;28;20370;-87
2021/06/04 07:09:47;;;;;;;39.38;29.27;;;20.70;99.90;;;;;;5050475;28;20025;-87
2021/06/04 07:12:13;;;;;;;37.72;28.98;;;20.80;99.90;;;;;;5052342;28;20029;-87
2021/06/04 07:14:39;;;;;;;41.70;33.45;;;20.80;99.90;;;;;;5051000;28;20119;-87
2021/06/04 07:17:05;;;;;;;47.47;34.15;;;20.80;99.90;;;;;;5050919;28;20036;-87
2021/06/04 07:19:34;;;;;;;42.80;32.72;;;20.90;99.90;;;;;;5049519;28;20032;-87
2021/06/04 07:22:01;;;;;;;38.50;28.17;;;20.90;99.90;;;;;;5052192;28;20013;-87
2021/06/04 07:24:26;;;;;;;57.15;39.78;;;20.90;99.90;;;;;;5051361;28;20025;-87
2021/06/04 07:26:55;;;;;;;55.95;38.22;;;20.90;99.90;;;;;;5052104;28;20560;-87
2021/06/04 07:29:24;;;;;;;45.45;31.35;;;20.90;99.90;;;;;;5050314;28;20056;-87
2021/06/04 07:31:50;;;;;;;;;;;20.90;99.90;;;;;;5052417;28;20029;-87
2021/06/04 07:34:16;;;;;;;42.97;31.58;;;21.00;99.90;;;;;;5052138;28;19908;-87
2021/06/04 07:36:47;;;;;;;63.15;44.17;;;21.00;99.90;;;;;;5052069;28;20466;-88
2021/06/04 07:39:16;;;;;;;46.95;33.05;;;21.00;99.90;;;;;;5050025;28;20047;-88
2021/06/04 07:41:43;;;;;;;45.97;31.85;;;21.10;99.90;;;;;;5050766;28;20066;-87
2021/06/04 07:44:10;;;;;;;44.90;32.17;;;21.10;99.90;;;;;;5051655;28;20025;-87
2021/06/04 07:46:36;;;;;;;46.42;32.60;;;21.10;99.90;;;;;;5052062;28;20029;-87
2021/06/04 07:49:03;;;;;;;41.20;31.08;;;21.20;99.90;;;;;;5051382;28;20082;-87
2021/06/04 07:51:37;;;;;;;45.95;33.25;;;21.10;99.90;;;;;;5050517;28;20025;-87
2021/06/04 07:54:05;;;;;;;40.50;29.98;;;21.20;99.90;;;;;;5050564;28;20075;-87
2021/06/04 07:56:32;;;;;;;40.60;28.95;;;21.20;99.90;;;;;;5050449;28;20035;-87
2021/06/04 07:58:57;;;;;;;39.28;29.67;;;21.20;99.90;;;;;;5051200;28;20025;-87
2021/06/04 08:01:23;;;;;;;43.42;31.45;;;21.20;99.90;;;;;;5067133;28;20047;-87
2021/06/04 08:03:49;;;;;;;42.70;31.73;;;21.20;99.90;;;;;;5050590;28;20048;-87
2021/06/04 08:06:18;;;;;;;46.72;34.75;;;21.20;99.90;;;;;;5050472;28;20087;-87
2021/06/04 08:08:44;;;;;;;44.70;32.88;;;21.20;99.90;;;;;;5050644;28;20021;-87
2021/06/04 08:11:11;;;;;;;42.78;30.42;;;21.20;99.90;;;;;;5049573;28;20556;-87
2021/06/04 08:13:38;;;;;;;39.85;28.80;;;21.20;99.90;;;;;;5051900;28;20033;-87
2021/06/04 08:16:10;;;;;;;41.35;30.67;;;21.30;99.90;;;;;;5050426;28;20064;-87
2021/06/04 08:18:37;;;;;;;39.28;27.63;;;21.30;99.90;;;;;;5051872;28;20021;-87
2021/06/04 08:21:14;;;;;;;34.50;26.33;;;21.30;99.90;;;;;;5049929;28;20018;-87
2021/06/04 08:23:43;;;;;;;36.58;26.75;;;21.30;99.90;;;;;;5050432;28;20108;-87
2021/06/04 08:26:11;;;;;;;34.35;26.67;;;21.30;99.90;;;;;;5049971;28;20025;-87
2021/06/04 08:28:38;;;;;;;43.17;29.55;;;21.30;99.90;;;;;;5051612;28;20056;-87
2021/06/04 08:31:04;;;;;;;42.38;32.88;;;21.30;99.90;;;;;;5051461;28;20028;-87
2021/06/04 08:33:36;;;;;;;38.72;29.02;;;21.40;99.90;;;;;;5054262;28;20025;-87
2021/06/04 08:36:08;;;;;;;51.85;38.75;;;21.40;99.90;;;;;;5053957;28;20021;-87
2021/06/04 08:38:38;;;;;;;59.58;37.97;;;21.50;99.90;;;;;;5053866;28;20033;-87
2021/06/04 08:41:25;;;;;;;48.22;33.90;;;21.50;99.30;;;;;;5053506;28;20033;-87
2021/06/04 08:44:11;;;;;;;38.00;27.85;;;21.60;96.40;;;;;;5055272;28;20474;-87
2021/06/04 08:46:42;;;;;;;35.58;27.00;;;21.60;97.20;;;;;;5055084;28;20459;-87
2021/06/04 08:49:16;;;;;;;31.65;24.85;;;21.70;97.40;;;;;;5053397;28;20056;-87
2021/06/04 08:52:04;;;;;;;27.63;23.00;;;21.70;97.30;;;;;;5053872;28;20470;-87
2021/06/04 08:54:43;;;;;;;30.33;24.02;;;21.70;97.20;;;;;;5055075;28;20039;-87
2021/06/04 08:57:11;;;;;;;34.83;27.48;;;21.70;97.40;;;;;;5053615;28;20059;-87
2021/06/04 08:59:38;;;;;;;48.05;35.88;;;21.70;97.50;;;;;;5052830;28;20021;-87
2021/06/04 09:02:03;;;;;;;44.17;34.70;;;21.70;97.50;;;;;;5053794;28;20474;-87
2021/06/04 09:04:40;;;;;;;48.95;37.08;;;21.70;97.20;;;;;;5070242;28;20037;-87
2021/06/04 09:07:19;;;;;;;43.25;32.85;;;21.80;96.80;;;;;;5053669;28;20028;-87
2021/06/04 09:10:17;;;;;;;37.15;29.40;;;21.70;97.50;;;;;;5052828;28;20029;-87
2021/06/04 09:12:49;;;;;;;36.42;27.88;;;21.80;97.40;;;;;;5044588;28;20033;-88
2021/06/04 09:15:23;;;;;;;35.33;28.10;;;21.80;97.60;;;;;;5054586;28;20979;-86
2021/06/04 09:18:03;;;;;;;34.03;28.30;;;21.80;97.40;;;;;;5053219;28;20379;-87
2021/06/04 09:20:57;;;;;;;33.90;27.10;;;21.80;97.40;;;;;;5052402;28;20496;-86
2021/06/04 09:23:29;;;;;;;35.05;27.90;;;21.70;97.40;;;;;;5051541;28;20127;-87
2021/06/04 09:25:59;;;;;;;36.35;29.35;;;21.70;97.40;;;;;;5053296;28;20080;-87
2021/06/04 09:28:36;;;;;;;37.53;28.58;;;21.80;97.40;;;;;;5069914;28;20024;-87
2021/06/04 09:31:32;;;;;;;38.25;29.95;;;21.80;97.50;;;;;;5069217;28;20028;-87
2021/06/04 09:34:31;;;;;;;38.78;27.60;;;21.90;97.50;;;;;;5053164;28;20083;-87
2021/06/04 09:37:26;;;;;;;37.65;29.20;;;21.90;97.60;;;;;;5052986;28;20029;-87
2021/06/04 09:39:54;;;;;;;32.35;27.77;;;21.90;97.30;;;;;;5054933;28;20040;-87
2021/06/04 09:42:33;;;;;;;35.45;27.92;;;22.00;97.20;;;;;;5051959;28;20024;-87
2021/06/04 09:45:11;;;;;;;36.63;29.98;;;22.00;97.30;;;;;;5053278;28;20025;-86
2021/06/04 09:47:39;;;;;;;51.03;36.25;;;22.00;96.80;;;;;;5059052;28;20116;-86
2021/06/04 09:50:20;;;;;;;37.00;29.70;;;22.00;96.30;;;;;;5076578;28;20025;-87
2021/06/04 09:52:59;;;;;;;37.40;28.95;;;22.10;96.50;;;;;;5075885;28;20219;-86
2021/06/04 09:55:31;;;;;;;42.92;32.85;;;22.10;96.90;;;;;;5072388;28;20029;-85
2021/06/04 09:58:15;;;;;;;47.28;33.72;;;22.10;95.90;;;;;;5052764;28;20104;-86
2021/06/04 10:00:43;;;;;;;40.30;30.38;;;22.20;95.20;;;;;;5051839;28;20017;-85
2021/06/04 10:03:25;;;;;;;38.10;28.63;;;22.20;95.20;;;;;;5054032;28;20025;-86
2021/06/04 10:06:17;;;;;;;42.45;32.15;;;22.20;95.40;;;;;;5070457;28;20123;-87
2021/06/04 10:08:44;;;;;;;36.40;28.13;;;22.20;95.10;;;;;;5077444;28;20024;-87
2021/06/04 10:11:21;;;;;;;32.80;25.65;;;22.20;95.20;;;;;;5051958;28;20033;-85
2021/06/04 10:14:01;;;;;;;35.53;27.23;;;22.20;95.80;;;;;;5052276;28;20090;-85
2021/06/04 10:19:37;;;;;;;32.88;26.52;;;22.20;96.10;;;;;;5054298;28;20555;-86
2021/06/04 10:22:15;;;;;;;47.08;35.13;;;22.30;96.10;;;;;;5069064;28;20021;-86
2021/06/04 10:24:48;;;;;;;34.47;28.07;;;22.40;95.00;;;;;;5069052;28;20103;-86
2021/06/04 10:27:19;;;;;;;36.25;27.35;;;22.40;95.30;;;;;;5052527;28;20115;-86
2021/06/04 10:29:59;;;;;;;33.70;26.92;;;22.30;95.20;;;;;;5053817;28;20025;-87
2021/06/04 10:32:31;;;;;;;29.98;25.90;;;22.40;95.30;;;;;;5070541;28;20041;-86
2021/06/04 10:35:04;;;;;;;34.10;26.48;;;22.30;95.30;;;;;;5051727;28;20075;-85
2021/06/04 10:37:42;;;;;;;33.50;27.23;;;22.30;95.50;;;;;;5053595;28;20083;-87
2021/06/04 10:40:34;;;;;;;41.85;29.63;;;22.30;95.80;;;;;;5074421;28;20025;-87
2021/06/04 10:43:27;;;;;;;34.67;27.65;;;22.40;96.20;;;;;;5076349;28;20017;-87
2021/06/04 10:46:19;;;;;;;28.90;23.75;;;22.50;95.70;;;;;;5075984;28;20021;-87
2021/06/04 10:49:09;;;;;;;32.65;24.77;;;22.60;94.50;;;;;;5058586;28;20039;-87
2021/06/04 10:51:57;;;;;;;30.90;24.48;;;22.70;93.90;;;;;;5074884;28;20025;-87
2021/06/04 10:54:34;;;;;;;;;;;22.80;93.50;;;;;;5059830;28;20021;-86
2021/06/04 10:57:08;;;;;;;18.80;13.87;;;22.80;92.20;;;;;;5058063;28;19908;-87
2021/06/04 10:59:57;;;;;;;18.00;13.45;;;22.90;92.20;;;;;;5057996;28;20162;-87
2021/06/04 11:02:43;;;;;;;19.75;13.73;;;22.90;92.40;;;;;;5075592;28;20029;-86
2021/06/04 11:05:49;;;;;;;24.17;19.70;;;22.80;92.20;;;;;;5059553;28;20490;-87
2021/06/04 11:08:40;;;;;;;30.00;22.38;;;22.80;92.50;;;;;;5059238;28;20025;-86
2021/06/04 11:11:39;;;;;;;22.65;18.52;;;22.90;92.30;;;;;;5073711;28;20542;-87
2021/06/04 11:14:33;;;;;;;22.98;18.60;;;22.80;92.20;;;;;;5057821;28;20024;-87
2021/06/04 11:17:21;;;;;;;18.95;15.27;;;22.80;92.00;;;;;;5074364;28;20116;-87
2021/06/04 11:20:03;;;;;;;20.60;16.65;;;22.70;92.10;;;;;;5059077;28;20044;-87
2021/06/04 11:22:31;;;;;;;25.70;17.88;;;22.70;92.00;;;;;;5059096;28;20025;-87
2021/06/04 11:25:13;;;;;;;19.17;14.88;;;22.80;92.10;;;;;;5073731;28;20025;-87
2021/06/04 11:27:48;;;;;;;19.88;15.48;;;22.90;91.80;;;;;;5074016;28;20021;-87
2021/06/04 11:30:29;;;;;;;21.08;16.20;;;22.90;91.90;;;;;;5057004;28;20074;-87
2021/06/04 11:33:14;;;;;;;18.92;14.10;;;23.00;92.60;;;;;;5058214;28;20025;-86
2021/06/04 11:35:54;;;;;;;22.10;15.98;;;23.00;92.80;;;;;;5057349;28;20021;-87
2021/06/04 11:38:46;;;;;;;18.90;10.73;;;23.10;91.10;;;;;;5059009;28;20018;-87
2021/06/04 11:41:40;;;;;;;18.75;14.98;;;23.20;89.10;;;;;;5056505;28;20033;-87
2021/06/04 11:44:41;;;;;;;17.48;13.95;;;23.20;90.20;;;;;;5056937;28;20025;-87
2021/06/04 11:47:13;;;;;;;23.48;16.58;;;23.20;90.40;;;;;;5050116;28;20041;-87
2021/06/04 11:50:01;;;;;;;20.23;16.13;;;23.20;90.70;;;;;;5072189;28;20108;-87
2021/06/04 11:52:27;;;;;;;20.35;16.75;;;23.20;90.90;;;;;;5058075;28;20021;-87
2021/06/04 11:55:19;;;;;;;18.63;16.05;;;23.20;91.30;;;;;;5071987;28;20082;-86
2021/06/04 11:57:49;;;;;;;20.92;15.20;;;23.20;90.50;;;;;;5074791;28;20025;-87
2021/06/04 12:00:30;;;;;;;18.50;14.93;;;23.20;90.40;;;;;;5059007;28;20032;-87
2021/06/04 12:03:04;;;;;;;22.52;16.35;;;23.30;90.70;;;;;;5073730;28;20029;-87
2021/06/04 12:05:54;;;;;;;20.73;16.63;;;23.30;90.80;;;;;;5075086;28;20021;-87
2021/06/04 12:08:28;;;;;;;21.63;17.40;;;23.40;90.90;;;;;;5060554;28;20025;-88
2021/06/04 12:11:04;;;;;;;22.00;16.67;;;23.50;90.20;;;;;;5061329;28;20081;-88
2021/06/04 12:14:05;;;;;;;20.08;14.80;;;23.60;88.70;;;;;;5076447;28;20032;-87
2021/06/04 12:16:34;;;;;;;18.60;11.55;;;23.70;88.10;;;;;;5055071;28;20083;-87
2021/06/04 12:19:32;;;;;;;16.08;11.52;;;23.80;88.00;;;;;;5060040;28;20025;-88
2021/06/04 12:22:10;;;;;;;13.88;11.80;;;23.70;87.90;;;;;;5058273;28;20036;-88
2021/06/04 12:24:39;;;;;;;13.82;11.05;;;23.70;88.80;;;;;;5059507;28;20395;-88
2021/06/04 12:27:10;;;;;;;;;;;23.60;89.20;;;;;;5076643;28;20060;-87
2021/06/04 12:29:51;;;;;;;17.20;13.40;;;23.70;88.60;;;;;;5059320;28;19905;-87
2021/06/04 12:32:37;;;;;;;17.08;13.15;;;23.70;87.10;;;;;;5059628;28;20032;-87
2021/06/04 12:35:05;;;;;;;20.42;15.25;;;23.70;87.70;;;;;;5060984;28;20139;-88
2021/06/04 12:37:39;;;;;;;15.93;12.65;;;23.80;86.60;;;;;;5076296;28;20091;-87
2021/06/04 12:40:25;;;;;;;15.85;11.73;;;23.80;87.20;;;;;;5059768;28;20393;-87
2021/06/04 12:43:09;;;;;;;18.80;12.93;;;23.90;87.30;;;;;;5060355;28;20092;-87
2021/06/04 12:45:37;;;;;;;17.75;14.73;;;24.00;86.90;;;;;;5076329;28;20036;-87
2021/06/04 12:48:22;;;;;;;18.92;13.48;;;24.20;85.70;;;;;;5061299;28;20021;-87
2021/06/04 12:50:56;;;;;;;17.92;13.43;;;24.20;85.10;;;;;;5058907;28;20033;-87
2021/06/04 12:53:27;;;;;;;15.50;11.05;;;24.30;84.40;;;;;;5060587;28;20040;-87
2021/06/04 12:56:13;;;;;;;13.02;10.10;;;24.30;84.70;;;;;;5060575;28;20083;-87
2021/06/04 12:58:48;;;;;;;17.50;12.80;;;24.30;85.10;;;;;;5058988;28;20025;-87
2021/06/04 13:01:22;;;;;;;13.23;11.48;;;24.20;84.80;;;;;;5059232;28;20570;-87
2021/06/04 13:03:59;;;;;;;13.05;10.65;;;24.10;85.70;;;;;;5076114;28;20433;-87